Time;durP1;ratioP1;P1;durP2;ratioP2;P2;SDS_P1;SDS_P2;PMS_P1;PMS_P2;Temp;Humidity;BMP_temperature;BMP_pressure;BME280_temperature;BME280_humidity;BME280_pressure;Samples;Min_cycle;Max_cycle;Signal;HPM_P1;HPM_P2
2023/08/03 00:00:28;;;;;;;3.80;1.30;;;16.10;99.90;;;;;;5065024;28;20115;-89
2023/08/03 00:02:54;;;;;;;8.70;1.70;;;16.10;99.90;;;;;;5068224;28;20120;-84
2023/08/03 00:05:20;;;;;;;3.33;1.40;;;16.10;99.90;;;;;;5066355;28;20119;-90
2023/08/03 00:07:47;;;;;;;4.80;1.40;;;16.20;99.90;;;;;;5067377;28;20147;-86
2023/08/03 00:10:13;;;;;;;3.80;1.35;;;16.20;99.90;;;;;;5059924;28;20025;-86
2023/08/03 00:12:38;;;;;;;5.03;1.45;;;16.20;99.90;;;;;;5062592;28;20696;-86
2023/08/03 00:15:05;;;;;;;2.53;1.63;;;16.20;99.90;;;;;;5066233;28;20474;-87
2023/08/03 00:17:30;;;;;;;2.85;1.63;;;16.20;99.90;;;;;;5067832;28;20024;-85
2023/08/03 00:19:56;;;;;;;4.13;1.50;;;16.20;99.90;;;;;;5065815;28;20024;-86
2023/08/03 00:22:22;;;;;;;4.63;1.40;;;16.20;99.90;;;;;;5059427;28;20052;-86
2023/08/03 00:24:49;;;;;;;2.80;1.40;;;16.20;99.90;;;;;;5065474;28;20118;-86
2023/08/03 00:27:14;;;;;;;2.92;1.17;;;16.20;99.90;;;;;;5067885;28;20021;-84
2023/08/03 00:29:40;;;;;;;2.13;1.15;;;16.20;99.90;;;;;;5067237;28;20089;-87
2023/08/03 00:32:06;;;;;;;7.00;1.65;;;16.10;99.90;;;;;;5063403;28;20111;-89
2023/08/03 00:34:32;;;;;;;4.45;1.30;;;16.20;99.90;;;;;;5064684;28;20405;-88
2023/08/03 00:36:58;;;;;;;3.67;1.52;;;16.20;99.90;;;;;;5067599;28;20146;-86
2023/08/03 00:39:24;;;;;;;8.05;1.80;;;16.20;99.90;;;;;;5067716;28;20254;-86
2023/08/03 00:41:50;;;;;;;7.38;1.67;;;16.10;99.90;;;;;;5067726;28;20083;-87
2023/08/03 00:44:16;;;;;;;8.02;1.45;;;16.10;99.90;;;;;;5064350;28;20056;-86
2023/08/03 00:46:41;;;;;;;13.02;2.00;;;16.10;99.90;;;;;;5062743;28;20063;-85
2023/08/03 00:49:07;;;;;;;4.45;1.77;;;16.10;99.90;;;;;;5062634;28;20025;-86
2023/08/03 00:51:33;;;;;;;4.35;1.60;;;16.10;99.90;;;;;;5059408;28;20056;-87
2023/08/03 00:54:00;;;;;;;4.45;1.77;;;16.10;99.90;;;;;;5065842;28;20481;-85
2023/08/03 00:56:26;;;;;;;6.97;1.52;;;16.10;99.90;;;;;;5063990;28;20119;-86
2023/08/03 00:58:51;;;;;;;6.07;2.15;;;16.10;99.90;;;;;;5063990;28;20127;-86
2023/08/03 01:01:17;;;;;;;9.93;2.25;;;16.10;99.90;;;;;;5059872;28;20107;-87
2023/08/03 01:03:43;;;;;;;5.07;1.55;;;16.10;99.90;;;;;;5060186;28;20028;-86
2023/08/03 01:06:08;;;;;;;9.13;1.65;;;16.10;99.90;;;;;;5065582;28;20040;-87
2023/08/03 01:08:36;;;;;;;8.95;1.75;;;16.10;99.90;;;;;;5064806;28;20032;-91
2023/08/03 01:11:03;;;;;;;12.15;2.95;;;16.10;99.90;;;;;;5061548;28;20032;-84
2023/08/03 01:13:29;;;;;;;5.50;1.52;;;16.10;99.90;;;;;;5062284;28;20033;-86
2023/08/03 01:15:57;;;;;;;10.63;2.28;;;16.20;99.90;;;;;;5065590;28;20031;-87
2023/08/03 01:18:22;;;;;;;8.98;1.90;;;16.20;99.90;;;;;;5059684;28;20098;-86
2023/08/03 01:20:49;;;;;;;5.30;2.58;;;16.20;99.90;;;;;;5066568;28;20375;-87
2023/08/03 01:23:14;;;;;;;9.70;2.30;;;16.20;99.90;;;;;;5065941;28;20565;-85
2023/08/03 01:25:40;;;;;;;9.85;2.45;;;16.20;99.90;;;;;;5065589;28;20127;-87
2023/08/03 01:28:06;;;;;;;7.65;2.08;;;16.10;99.90;;;;;;5065116;28;20032;-86
2023/08/03 01:30:32;;;;;;;9.15;1.92;;;16.10;99.90;;;;;;5066323;28;20278;-88
2023/08/03 01:32:58;;;;;;;10.25;2.38;;;16.20;99.90;;;;;;5064924;28;20025;-88
2023/08/03 01:35:24;;;;;;;9.27;2.40;;;16.10;99.90;;;;;;5064430;28;20036;-85
2023/08/03 01:37:51;;;;;;;12.40;1.77;;;16.20;99.90;;;;;;5067124;28;20492;-84
2023/08/03 01:40:17;;;;;;;10.30;2.50;;;16.10;99.90;;;;;;5066599;28;20040;-86
2023/08/03 01:42:43;;;;;;;14.40;2.78;;;16.20;99.90;;;;;;5063361;28;20033;-87
2023/08/03 01:45:09;;;;;;;21.80;3.80;;;16.10;99.90;;;;;;5058832;28;20058;-87
2023/08/03 01:47:34;;;;;;;11.30;2.47;;;16.10;99.90;;;;;;5066465;28;20503;-83
2023/08/03 01:50:00;;;;;;;14.13;3.08;;;16.10;99.90;;;;;;5064086;28;20021;-86
2023/08/03 01:52:26;;;;;;;16.70;3.50;;;16.10;99.90;;;;;;5059545;28;20028;-90
2023/08/03 01:54:51;;;;;;;13.85;2.45;;;16.10;99.90;;;;;;5061435;28;20027;-88
2023/08/03 01:57:20;;;;;;;12.63;2.40;;;16.10;99.90;;;;;;5065779;28;20029;-84
2023/08/03 01:59:46;;;;;;;21.58;4.57;;;16.10;99.90;;;;;;5064004;28;20024;-86
2023/08/03 02:02:14;;;;;;;21.20;2.60;;;16.00;99.90;;;;;;5062008;28;20379;-87
2023/08/03 02:04:40;;;;;;;17.27;3.38;;;16.00;99.90;;;;;;5065898;28;20063;-86
2023/08/03 02:07:16;;;;;;;15.75;2.95;;;16.00;99.90;;;;;;5061581;28;20084;-87
2023/08/03 02:09:42;;;;;;;16.48;2.80;;;16.00;99.90;;;;;;5063687;28;20470;-86
2023/08/03 02:12:08;;;;;;;13.60;2.90;;;16.00;99.90;;;;;;5063324;28;20024;-83
2023/08/03 02:14:34;;;;;;;15.75;2.47;;;16.00;99.90;;;;;;5065751;28;20029;-87
2023/08/03 02:17:00;;;;;;;12.73;2.47;;;16.00;99.90;;;;;;5065564;28;20024;-88
2023/08/03 02:19:25;;;;;;;16.58;3.13;;;15.90;99.90;;;;;;5064807;28;20032;-81
2023/08/03 02:21:51;;;;;;;11.50;2.67;;;15.90;99.90;;;;;;5060525;28;20025;-87
2023/08/03 02:24:17;;;;;;;15.05;3.22;;;15.90;99.90;;;;;;5061269;28;20227;-87
2023/08/03 02:26:42;;;;;;;11.70;2.78;;;15.90;99.90;;;;;;5066511;28;20525;-83
2023/08/03 02:29:08;;;;;;;20.60;3.28;;;15.80;99.90;;;;;;5063393;28;20028;-89
2023/08/03 02:31:33;;;;;;;12.93;2.67;;;15.90;99.90;;;;;;5064169;28;20447;-85
2023/08/03 02:33:59;;;;;;;15.20;2.92;;;15.80;99.90;;;;;;5066750;28;20065;-86
2023/08/03 02:36:24;;;;;;;6.13;2.22;;;15.80;99.90;;;;;;5065500;28;20031;-86
2023/08/03 02:38:50;;;;;;;13.07;2.97;;;15.80;99.90;;;;;;5062815;28;20467;-85
2023/08/03 02:41:16;;;;;;;12.13;2.50;;;15.80;99.90;;;;;;5066795;28;20461;-86
2023/08/03 02:43:42;;;;;;;12.45;2.75;;;15.80;99.90;;;;;;5065973;28;20056;-87
2023/08/03 02:46:08;;;;;;;17.88;3.40;;;15.70;99.90;;;;;;5068178;28;20041;-86
2023/08/03 02:48:33;;;;;;;16.15;2.20;;;15.80;99.90;;;;;;5066967;28;20551;-89
2023/08/03 02:50:59;;;;;;;12.30;2.38;;;15.70;99.90;;;;;;5067978;28;20237;-87
2023/08/03 02:53:24;;;;;;;22.08;3.80;;;15.70;99.90;;;;;;5069456;28;20391;-87
2023/08/03 02:55:51;;;;;;;13.70;2.88;;;15.70;99.90;;;;;;5062952;28;20039;-86
2023/08/03 02:58:16;;;;;;;19.02;2.92;;;15.70;99.90;;;;;;5062045;28;20029;-87
2023/08/03 03:00:55;;;;;;;21.27;2.70;;;15.70;99.90;;;;;;5060071;28;20021;-89
2023/08/03 03:03:20;;;;;;;24.25;3.17;;;15.70;99.90;;;;;;5065046;28;20028;-87
2023/08/03 03:05:46;;;;;;;13.40;2.75;;;15.70;99.90;;;;;;5063282;28;20032;-83
2023/08/03 03:08:12;;;;;;;12.52;1.73;;;15.70;99.90;;;;;;5054591;28;20029;-87
2023/08/03 03:10:37;;;;;;;20.98;3.05;;;15.70;99.90;;;;;;5055777;28;20033;-88
2023/08/03 03:13:03;;;;;;;9.70;2.30;;;15.70;99.90;;;;;;5065345;28;20032;-87
2023/08/03 03:15:28;;;;;;;12.93;2.00;;;15.70;99.90;;;;;;5066439;28;20131;-89
2023/08/03 03:17:54;;;;;;;11.65;2.13;;;15.80;99.90;;;;;;5067070;28;20024;-85
2023/08/03 03:20:20;;;;;;;9.82;2.20;;;15.80;99.90;;;;;;5063163;28;20023;-86
2023/08/03 03:22:45;;;;;;;19.02;3.38;;;15.80;99.90;;;;;;5057460;28;20024;-87
2023/08/03 03:25:11;;;;;;;15.85;2.67;;;15.70;99.90;;;;;;5061903;28;20135;-88
2023/08/03 03:27:36;;;;;;;12.40;2.45;;;15.70;99.90;;;;;;5064104;28;20440;-85
2023/08/03 03:30:02;;;;;;;9.93;2.28;;;15.80;99.90;;;;;;5065539;28;20024;-86
2023/08/03 03:32:28;;;;;;;11.30;2.75;;;15.70;99.90;;;;;;5064603;28;20028;-83
2023/08/03 03:34:53;;;;;;;9.07;2.03;;;15.80;99.90;;;;;;5065451;28;20425;-85
2023/08/03 03:37:19;;;;;;;20.65;2.75;;;15.70;99.90;;;;;;5057606;28;20028;-85
2023/08/03 03:39:44;;;;;;;16.55;3.05;;;15.80;99.90;;;;;;5067075;28;20035;-86
2023/08/03 03:42:10;;;;;;;13.43;3.00;;;15.80;99.90;;;;;;5066181;28;20028;-85
2023/08/03 03:44:36;;;;;;;16.80;2.75;;;15.80;99.90;;;;;;5064799;28;20444;-86
2023/08/03 03:47:01;;;;;;;11.02;2.53;;;15.80;99.90;;;;;;5062987;28;20024;-89
2023/08/03 03:49:30;;;;;;;14.50;2.63;;;15.80;99.90;;;;;;5060260;28;20470;-89
2023/08/03 03:51:56;;;;;;;12.05;2.28;;;15.80;99.90;;;;;;5062650;28;20062;-86
2023/08/03 03:54:21;;;;;;;13.32;2.67;;;15.70;99.90;;;;;;5061241;28;20597;-85
2023/08/03 03:56:47;;;;;;;13.93;2.55;;;15.80;99.90;;;;;;5063229;28;20025;-87
2023/08/03 03:59:12;;;;;;;16.02;3.75;;;15.80;99.90;;;;;;5061963;28;20362;-81
2023/08/03 04:01:38;;;;;;;13.32;2.58;;;15.70;99.90;;;;;;5051765;28;20095;-88
2023/08/03 04:04:04;;;;;;;9.35;2.10;;;15.70;99.90;;;;;;5059650;28;20440;-86
2023/08/03 04:06:29;;;;;;;20.77;2.92;;;15.70;99.90;;;;;;5058748;28;20036;-80
2023/08/03 04:08:55;;;;;;;17.17;2.35;;;15.80;99.90;;;;;;5057011;28;20032;-81
2023/08/03 04:11:20;;;;;;;17.15;3.30;;;15.80;99.90;;;;;;5059239;28;20021;-86
2023/08/03 04:13:46;;;;;;;9.20;1.98;;;15.80;99.90;;;;;;5058911;28;20382;-89
2023/08/03 04:16:11;;;;;;;10.48;2.53;;;15.80;99.90;;;;;;5063766;28;20390;-86
2023/08/03 04:18:39;;;;;;;12.13;2.58;;;15.80;99.90;;;;;;5061379;28;20029;-87
2023/08/03 04:21:04;;;;;;;9.38;2.20;;;15.80;99.90;;;;;;5060843;28;20315;-83
2023/08/03 04:23:30;;;;;;;16.75;2.08;;;15.80;99.90;;;;;;5057272;28;20021;-84
2023/08/03 04:25:56;;;;;;;9.90;1.65;;;15.90;99.90;;;;;;5057004;28;20195;-88
2023/08/03 04:28:24;;;;;;;13.40;2.20;;;15.80;99.90;;;;;;5063041;28;20231;-87
2023/08/03 04:30:49;;;;;;;9.93;1.73;;;15.80;99.90;;;;;;5060604;28;20123;-83
2023/08/03 04:33:15;;;;;;;11.23;2.40;;;15.90;99.90;;;;;;5058983;28;20554;-83
2023/08/03 04:35:41;;;;;;;11.98;2.58;;;15.90;99.90;;;;;;5056060;28;20033;-87
2023/08/03 04:38:06;;;;;;;8.95;1.60;;;15.90;99.90;;;;;;5056631;28;20441;-87
2023/08/03 04:40:35;;;;;;;17.90;2.65;;;15.90;99.90;;;;;;5057508;28;20117;-86
2023/08/03 04:43:01;;;;;;;13.65;2.38;;;15.80;99.90;;;;;;5059309;28;20029;-86
2023/08/03 04:45:28;;;;;;;8.32;1.42;;;15.80;99.90;;;;;;5057870;28;20465;-84
2023/08/03 04:48:39;;;;;;;12.40;1.85;;;15.90;99.90;;;;;;5058965;28;20411;-86
2023/08/03 04:51:05;;;;;;;8.05;1.83;;;15.90;99.90;;;;;;5056461;28;20560;-88
2023/08/03 04:53:31;;;;;;;13.02;1.80;;;15.80;99.90;;;;;;5056010;28;20021;-83
2023/08/03 04:55:56;;;;;;;8.00;1.58;;;15.80;99.90;;;;;;5064334;28;20462;-83
2023/08/03 04:58:22;;;;;;;12.43;2.10;;;15.90;99.90;;;;;;5064300;28;20441;-85
2023/08/03 05:00:50;;;;;;;9.57;1.95;;;15.80;99.90;;;;;;5059915;28;20433;-88
2023/08/03 05:03:16;;;;;;;8.07;1.60;;;15.80;99.90;;;;;;5064076;28;20028;-86
2023/08/03 05:05:42;;;;;;;12.02;1.70;;;15.80;99.90;;;;;;5061570;28;20520;-83
2023/08/03 05:08:07;;;;;;;11.18;2.00;;;15.90;99.90;;;;;;5055305;28;20021;-85
2023/08/03 05:10:33;;;;;;;12.73;2.03;;;15.90;99.90;;;;;;5063135;28;20025;-86
2023/08/03 05:12:59;;;;;;;8.10;1.50;;;16.00;99.90;;;;;;5062050;28;20021;-84
2023/08/03 05:15:24;;;;;;;12.27;1.92;;;16.00;99.90;;;;;;5062257;28;20039;-85
2023/08/03 05:17:50;;;;;;;9.35;1.92;;;16.00;99.90;;;;;;5061926;28;20056;-92
2023/08/03 05:20:16;;;;;;;12.68;1.85;;;16.10;99.90;;;;;;5052111;28;20115;-86
2023/08/03 05:22:42;;;;;;;6.93;1.50;;;16.20;99.90;;;;;;5054632;28;20028;-86
2023/08/03 05:25:08;;;;;;;4.93;1.63;;;16.20;99.90;;;;;;5063905;28;20052;-85
2023/08/03 05:27:34;;;;;;;10.20;1.75;;;16.20;99.90;;;;;;5063739;28;20119;-91
2023/08/03 05:29:59;;;;;;;10.65;1.88;;;16.20;99.90;;;;;;5065427;28;20120;-81
2023/08/03 05:32:25;;;;;;;9.38;1.65;;;16.30;99.90;;;;;;5060769;28;20035;-94
2023/08/03 05:34:51;;;;;;;7.20;1.60;;;16.30;99.90;;;;;;5061243;28;20029;-85
2023/08/03 05:37:17;;;;;;;6.75;1.50;;;16.40;99.90;;;;;;5063922;28;20098;-87
2023/08/03 05:39:42;;;;;;;5.03;1.40;;;16.50;99.90;;;;;;5058958;28;20389;-82
2023/08/03 05:42:12;;;;;;;6.85;1.42;;;16.60;99.90;;;;;;5062050;28;20437;-85
2023/08/03 05:44:38;;;;;;;6.97;1.90;;;16.70;99.90;;;;;;5062886;28;20711;-82
2023/08/03 05:47:08;;;;;;;3.30;0.98;;;16.80;99.90;;;;;;5054522;28;20043;-89
2023/08/03 05:49:36;;;;;;;8.73;1.70;;;16.80;99.90;;;;;;5058642;28;20041;-88
2023/08/03 05:52:01;;;;;;;7.38;1.23;;;16.70;99.90;;;;;;5059621;28;20021;-83
2023/08/03 05:54:27;;;;;;;6.80;1.20;;;16.70;99.90;;;;;;5059804;28;20070;-83
2023/08/03 05:56:53;;;;;;;6.13;1.42;;;16.60;99.90;;;;;;5065132;28;20762;-85
2023/08/03 05:59:22;;;;;;;6.45;1.40;;;16.50;99.90;;;;;;5064005;28;20033;-85
2023/08/03 06:01:50;;;;;;;8.73;1.92;;;16.40;99.90;;;;;;5057414;28;20441;-83
2023/08/03 06:04:16;;;;;;;5.25;1.42;;;16.40;99.90;;;;;;5062688;28;20077;-82
2023/08/03 06:06:43;;;;;;;8.48;1.98;;;16.40;99.90;;;;;;5059725;28;20082;-82
2023/08/03 06:09:11;;;;;;;4.72;1.30;;;16.30;99.90;;;;;;5052698;28;20645;-84
2023/08/03 06:11:37;;;;;;;7.40;1.67;;;16.20;99.90;;;;;;5048749;28;20029;-83
2023/08/03 06:14:04;;;;;;;6.28;1.13;;;16.30;99.90;;;;;;5062197;28;20027;-85
2023/08/03 06:16:30;;;;;;;8.57;1.65;;;16.20;99.90;;;;;;5060313;28;20025;-83
2023/08/03 06:18:58;;;;;;;4.03;1.23;;;16.20;99.90;;;;;;5066574;28;20024;-83
2023/08/03 06:21:25;;;;;;;10.32;1.52;;;16.30;99.90;;;;;;5060878;28;20033;-81
2023/08/03 06:23:54;;;;;;;11.73;2.00;;;16.30;99.90;;;;;;5066123;28;20048;-81
2023/08/03 06:26:20;;;;;;;3.88;1.00;;;16.30;99.90;;;;;;5067347;28;20046;-83
2023/08/03 06:28:49;;;;;;;5.50;1.20;;;16.30;99.90;;;;;;5067984;28;20036;-82
2023/08/03 06:31:31;;;;;;;7.05;0.88;;;16.40;99.90;;;;;;5062977;28;20832;-79
2023/08/03 06:33:58;;;;;;;8.98;1.17;;;16.40;99.90;;;;;;5065349;28;20028;-87
2023/08/03 06:36:25;;;;;;;4.13;1.08;;;16.40;99.90;;;;;;5063636;28;20057;-83
2023/08/03 06:38:51;;;;;;;5.03;1.15;;;16.40;99.90;;;;;;5063099;28;20430;-83
2023/08/03 06:41:17;;;;;;;5.47;1.20;;;16.40;99.90;;;;;;5064638;28;20035;-86
2023/08/03 06:43:44;;;;;;;9.40;1.08;;;16.40;99.90;;;;;;5064048;28;20048;-83
2023/08/03 06:46:09;;;;;;;5.40;1.17;;;16.40;99.90;;;;;;5065688;28;20040;-83
2023/08/03 06:48:36;;;;;;;5.78;0.90;;;16.50;99.90;;;;;;5063908;28;20082;-82
2023/08/03 06:51:05;;;;;;;3.85;0.80;;;16.50;99.90;;;;;;5065141;28;20031;-91
2023/08/03 06:53:31;;;;;;;7.25;1.10;;;16.50;99.90;;;;;;5064517;28;20028;-83
2023/08/03 06:55:57;;;;;;;5.10;0.85;;;16.50;99.90;;;;;;5065069;28;20335;-83
2023/08/03 06:58:22;;;;;;;4.60;0.85;;;16.50;99.90;;;;;;5067891;28;20561;-81
2023/08/03 07:00:58;;;;;;;5.38;0.82;;;16.50;99.90;;;;;;5058049;28;20122;-85
2023/08/03 07:03:24;;;;;;;2.58;0.82;;;16.60;99.90;;;;;;5065658;28;20075;-81
2023/08/03 07:05:50;;;;;;;2.83;0.70;;;16.50;99.90;;;;;;5063292;28;20449;-85
2023/08/03 07:08:15;;;;;;;1.80;0.60;;;16.60;99.90;;;;;;5066387;28;20375;-84
2023/08/03 07:10:41;;;;;;;4.43;1.00;;;16.60;99.90;;;;;;5062643;28;20024;-88
2023/08/03 07:13:07;;;;;;;2.28;0.88;;;16.60;99.90;;;;;;5066367;28;20478;-87
2023/08/03 07:15:35;;;;;;;3.70;1.10;;;16.50;99.90;;;;;;5061555;28;20454;-84
2023/08/03 07:18:06;;;;;;;2.63;0.93;;;16.50;99.90;;;;;;5066682;28;20165;-82
2023/08/03 07:20:35;;;;;;;1.05;0.57;;;16.50;99.90;;;;;;5064064;28;20025;-86
2023/08/03 07:23:01;;;;;;;7.18;0.82;;;16.60;99.90;;;;;;5056799;28;20024;-84
2023/08/03 07:25:31;;;;;;;1.85;0.70;;;16.60;99.90;;;;;;5067314;28;20043;-82
2023/08/03 07:27:56;;;;;;;2.95;1.35;;;16.70;99.90;;;;;;5058691;28;20397;-84
2023/08/03 07:30:22;;;;;;;4.20;0.90;;;16.70;99.90;;;;;;5061110;28;20032;-82
2023/08/03 07:32:48;;;;;;;4.07;0.90;;;16.70;99.90;;;;;;5065098;28;20492;-86
2023/08/03 07:35:13;;;;;;;4.55;0.80;;;16.80;99.90;;;;;;5063948;28;20072;-86
2023/08/03 07:37:39;;;;;;;3.10;0.70;;;16.80;99.90;;;;;;5064156;28;20470;-86
2023/08/03 07:40:07;;;;;;;8.93;0.75;;;16.80;99.90;;;;;;5065912;28;20031;-87
2023/08/03 07:42:32;;;;;;;2.33;0.60;;;16.80;99.90;;;;;;5065021;28;20029;-88
2023/08/03 07:44:58;;;;;;;2.45;0.63;;;16.80;99.90;;;;;;5065051;28;20482;-82
2023/08/03 07:47:24;;;;;;;9.82;0.90;;;16.80;99.90;;;;;;5060703;28;20407;-82
2023/08/03 07:49:54;;;;;;;3.30;0.60;;;16.80;99.90;;;;;;5057113;28;20033;-83
2023/08/03 07:52:21;;;;;;;2.22;0.70;;;16.70;99.90;;;;;;5063831;28;20035;-89
2023/08/03 07:54:46;;;;;;;9.57;1.13;;;16.70;99.90;;;;;;5059752;28;20028;-81
2023/08/03 07:57:15;;;;;;;0.82;0.60;;;16.70;99.90;;;;;;5062578;28;20029;-83
2023/08/03 07:59:42;;;;;;;4.50;0.55;;;16.70;99.90;;;;;;5058264;28;20035;-80
2023/08/03 08:02:07;;;;;;;2.28;0.65;;;16.70;99.90;;;;;;5054418;28;20385;-85
2023/08/03 08:04:34;;;;;;;2.75;0.98;;;16.70;99.90;;;;;;5061623;28;20386;-86
2023/08/03 08:06:59;;;;;;;3.25;0.90;;;16.70;99.90;;;;;;5066722;28;20054;-80
2023/08/03 08:09:25;;;;;;;6.68;1.20;;;16.80;99.90;;;;;;5056974;28;20020;-81
2023/08/03 08:11:51;;;;;;;6.25;1.35;;;16.80;99.90;;;;;;5061786;28;20024;-81
2023/08/03 08:14:19;;;;;;;2.22;0.70;;;16.80;99.90;;;;;;5062233;28;20024;-82
2023/08/03 08:16:45;;;;;;;3.83;1.00;;;16.90;99.90;;;;;;5061097;28;20028;-86
2023/08/03 08:19:11;;;;;;;4.60;1.15;;;16.90;99.90;;;;;;5056291;28;20496;-80
2023/08/03 08:21:36;;;;;;;2.80;0.82;;;16.80;99.90;;;;;;5062354;28;20020;-80
2023/08/03 08:24:02;;;;;;;4.13;1.02;;;16.80;99.90;;;;;;5065099;28;20028;-83
2023/08/03 08:26:31;;;;;;;3.33;0.93;;;16.80;99.90;;;;;;5065958;28;20131;-83
2023/08/03 08:28:58;;;;;;;1.40;0.73;;;16.80;99.90;;;;;;5060099;28;20484;-82
2023/08/03 08:31:24;;;;;;;1.70;0.70;;;16.70;99.90;;;;;;5061769;28;20036;-86
2023/08/03 08:33:50;;;;;;;1.50;0.57;;;16.70;99.90;;;;;;5058003;28;20024;-80
2023/08/03 08:36:15;;;;;;;2.72;0.98;;;16.80;99.90;;;;;;5061446;28;20040;-80
2023/08/03 08:38:41;;;;;;;3.38;0.65;;;16.80;99.90;;;;;;5064215;28;20382;-80
2023/08/03 08:41:07;;;;;;;7.70;1.08;;;16.90;99.90;;;;;;5060063;28;20089;-79
2023/08/03 08:43:32;;;;;;;8.90;1.13;;;17.00;99.90;;;;;;5058929;28;20056;-83
2023/08/03 08:45:58;;;;;;;3.35;0.88;;;17.00;99.90;;;;;;5064280;28;20040;-82
2023/08/03 08:48:24;;;;;;;3.63;0.80;;;17.00;99.90;;;;;;5066145;28;20032;-80
2023/08/03 08:50:50;;;;;;;2.67;1.00;;;17.00;99.90;;;;;;5065385;28;20024;-81
2023/08/03 08:53:16;;;;;;;9.98;1.77;;;16.90;99.90;;;;;;5063979;28;20024;-80
2023/08/03 08:55:42;;;;;;;1.33;0.82;;;16.90;99.90;;;;;;5057831;28;20377;-82
2023/08/03 08:58:08;;;;;;;4.53;0.82;;;16.90;99.90;;;;;;5060821;28;20482;-81
2023/08/03 09:00:45;;;;;;;2.75;0.75;;;17.00;99.90;;;;;;5059359;28;20180;-85
2023/08/03 09:03:11;;;;;;;1.23;0.50;;;17.00;99.90;;;;;;5065107;28;20056;-81
2023/08/03 09:05:38;;;;;;;1.98;0.90;;;17.00;99.90;;;;;;5058563;28;20033;-82
2023/08/03 09:08:14;;;;;;;3.47;0.70;;;17.10;99.90;;;;;;5057496;28;20036;-84
2023/08/03 09:10:50;;;;;;;4.22;0.50;;;17.10;99.90;;;;;;5058254;28;20089;-81
2023/08/03 09:13:29;;;;;;;2.83;0.70;;;17.20;99.90;;;;;;5057353;28;20059;-84
2023/08/03 09:15:55;;;;;;;3.95;0.93;;;17.20;99.90;;;;;;5060381;28;20029;-81
2023/08/03 09:18:22;;;;;;;2.38;0.70;;;17.20;99.90;;;;;;5053846;28;20032;-88
2023/08/03 09:20:48;;;;;;;1.17;0.50;;;17.20;99.90;;;;;;5064734;28;20551;-85
2023/08/03 09:23:31;;;;;;;6.55;0.80;;;17.20;99.90;;;;;;5063804;28;20048;-84
2023/08/03 09:25:57;;;;;;;4.53;0.63;;;17.10;99.90;;;;;;5060920;28;20041;-89
2023/08/03 09:28:36;;;;;;;3.67;0.75;;;17.20;99.90;;;;;;5054480;28;20552;-81
2023/08/03 09:31:02;;;;;;;2.20;0.52;;;17.30;99.90;;;;;;5065676;28;20071;-86
2023/08/03 09:33:29;;;;;;;1.38;0.68;;;17.40;99.90;;;;;;5064378;28;20060;-86
2023/08/03 09:36:02;;;;;;;3.25;0.60;;;17.40;99.90;;;;;;5062719;28;20093;-86
2023/08/03 09:38:29;;;;;;;1.35;0.70;;;17.40;99.90;;;;;;5063031;28;20426;-87
2023/08/03 09:40:54;;;;;;;4.72;1.98;;;17.30;99.90;;;;;;5063410;28;20107;-80
2023/08/03 09:43:24;;;;;;;5.57;0.65;;;17.30;99.90;;;;;;5059401;28;20132;-86
2023/08/03 09:45:52;;;;;;;2.05;0.68;;;17.40;99.90;;;;;;5052836;28;20050;-81
2023/08/03 09:48:21;;;;;;;4.05;0.90;;;17.40;99.90;;;;;;5061061;28;20032;-84
2023/08/03 09:50:54;;;;;;;4.32;1.15;;;17.40;99.90;;;;;;5059542;28;20056;-84
2023/08/03 09:53:24;;;;;;;3.20;0.68;;;17.50;99.90;;;;;;5059368;28;20440;-83
2023/08/03 09:56:01;;;;;;;3.05;0.95;;;17.50;99.90;;;;;;5060851;28;20036;-84
2023/08/03 09:58:32;;;;;;;2.22;1.00;;;17.50;99.90;;;;;;5056728;28;20397;-84
2023/08/03 10:01:09;;;;;;;4.10;0.73;;;17.50;99.90;;;;;;5055780;28;20365;-81
2023/08/03 10:03:38;;;;;;;5.43;0.95;;;17.50;99.90;;;;;;5058890;28;20013;-84
2023/08/03 10:06:18;;;;;;;6.32;0.95;;;17.50;99.90;;;;;;5061556;28;20048;-88
2023/08/03 10:08:54;;;;;;;4.07;0.80;;;17.40;99.90;;;;;;5062853;28;20032;-85
2023/08/03 10:11:22;;;;;;;3.35;0.70;;;17.40;99.90;;;;;;5061173;28;20052;-81
2023/08/03 10:13:50;;;;;;;3.13;0.80;;;17.40;99.90;;;;;;5058567;28;20036;-82
2023/08/03 10:16:17;;;;;;;3.17;0.77;;;17.30;99.90;;;;;;5059978;28;20094;-82
2023/08/03 10:18:46;;;;;;;3.22;0.98;;;17.20;99.90;;;;;;5061473;28;20099;-82
2023/08/03 10:21:11;;;;;;;2.15;0.80;;;17.20;99.90;;;;;;5058187;28;20037;-82
2023/08/03 10:23:42;;;;;;;2.20;1.00;;;17.20;99.90;;;;;;5062591;28;20551;-83
2023/08/03 10:26:07;;;;;;;6.05;1.00;;;17.20;99.90;;;;;;5060471;28;20036;-81
2023/08/03 10:28:39;;;;;;;5.72;0.70;;;17.20;99.90;;;;;;5056329;28;20035;-88
2023/08/03 10:31:15;;;;;;;2.53;0.88;;;17.30;99.90;;;;;;5057662;28;20106;-84
2023/08/03 10:34:03;;;;;;;1.10;0.70;;;17.50;99.90;;;;;;5058870;28;20082;-84
2023/08/03 10:39:00;;;;;;;3.17;0.77;;;17.60;99.90;;;;;;5056270;28;20037;-83
2023/08/03 10:41:29;;;;;;;7.82;1.27;;;17.70;99.90;;;;;;5058179;28;20351;-86
2023/08/03 10:44:06;;;;;;;1.30;1.02;;;17.80;99.90;;;;;;5061763;28;20351;-84
2023/08/03 10:46:43;;;;;;;5.15;0.90;;;17.90;99.90;;;;;;5062733;28;20036;-84
2023/08/03 10:49:18;;;;;;;5.40;0.95;;;18.00;99.90;;;;;;5062103;28;20043;-85
2023/08/03 10:51:44;;;;;;;2.45;0.63;;;17.90;99.90;;;;;;5052172;28;20206;-80
2023/08/03 10:54:10;;;;;;;6.28;1.63;;;17.90;99.90;;;;;;5057709;28;20029;-80
2023/08/03 10:56:35;;;;;;;4.82;0.90;;;17.80;99.90;;;;;;5061199;28;20386;-87
2023/08/03 10:59:03;;;;;;;4.93;1.00;;;17.70;99.90;;;;;;5054612;28;20071;-82
2023/08/03 11:01:29;;;;;;;3.53;1.00;;;17.70;99.90;;;;;;5053651;28;20036;-84
2023/08/03 11:03:54;;;;;;;8.40;1.17;;;17.60;99.90;;;;;;5058281;28;20801;-81
2023/08/03 11:06:22;;;;;;;1.77;0.63;;;17.60;99.90;;;;;;5063075;28;20041;-89
2023/08/03 11:08:47;;;;;;;3.50;1.00;;;17.70;99.90;;;;;;5061053;28;20187;-84
2023/08/03 11:11:16;;;;;;;7.05;0.85;;;17.70;99.90;;;;;;5064739;28;20021;-84
2023/08/03 11:13:44;;;;;;;1.95;0.88;;;17.70;99.90;;;;;;5068127;28;20103;-85
2023/08/03 11:16:15;;;;;;;4.40;1.88;;;17.60;99.90;;;;;;5069379;28;20032;-82
2023/08/03 11:18:48;;;;;;;4.70;0.70;;;17.70;99.90;;;;;;5065824;28;20029;-83
2023/08/03 11:21:14;;;;;;;4.43;0.70;;;17.60;99.90;;;;;;5063301;28;20035;-82
2023/08/03 11:23:40;;;;;;;10.38;0.82;;;17.60;99.90;;;;;;5065397;28;20029;-83
2023/08/03 11:26:08;;;;;;;2.67;0.80;;;17.60;99.90;;;;;;5062658;28;20136;-85
2023/08/03 11:28:54;;;;;;;5.13;1.38;;;17.70;99.90;;;;;;5059774;28;20074;-83
2023/08/03 11:31:21;;;;;;;2.53;0.93;;;17.70;99.90;;;;;;5055969;28;20036;-82
2023/08/03 11:33:53;;;;;;;2.20;0.60;;;17.80;99.90;;;;;;5060425;28;21712;-83
2023/08/03 11:36:21;;;;;;;2.25;1.02;;;17.90;99.90;;;;;;5068723;28;20082;-88
2023/08/03 11:38:51;;;;;;;2.53;0.90;;;18.10;99.90;;;;;;5065568;28;20028;-83
2023/08/03 11:41:19;;;;;;;2.50;0.60;;;18.30;99.90;;;;;;5060150;28;20114;-83
2023/08/03 11:43:46;;;;;;;1.65;0.90;;;18.30;99.90;;;;;;5064526;28;20121;-84
2023/08/03 11:46:12;;;;;;;2.95;0.85;;;18.30;99.90;;;;;;5066583;28;20098;-86
2023/08/03 11:48:41;;;;;;;1.65;0.60;;;18.40;99.90;;;;;;5064101;28;20028;-80
2023/08/03 11:51:07;;;;;;;1.50;0.60;;;18.40;99.90;;;;;;5061390;28;20038;-82
2023/08/03 11:53:33;;;;;;;2.80;0.60;;;18.50;99.90;;;;;;5064148;28;20021;-86
2023/08/03 11:56:00;;;;;;;2.22;0.60;;;18.40;99.90;;;;;;5065302;28;20016;-83
2023/08/03 11:58:26;;;;;;;7.93;1.35;;;18.40;99.90;;;;;;5067109;28;20024;-84
2023/08/03 12:01:00;;;;;;;2.35;0.88;;;18.30;99.90;;;;;;5062997;28;20237;-81
2023/08/03 12:03:34;;;;;;;0.85;0.52;;;18.30;99.90;;;;;;5063495;28;20359;-88
2023/08/03 12:06:05;;;;;;;1.50;0.60;;;18.30;99.90;;;;;;5063838;28;20040;-83
2023/08/03 12:08:43;;;;;;;1.63;0.60;;;18.30;99.90;;;;;;5063847;28;20036;-86
2023/08/03 12:11:10;;;;;;;3.20;0.70;;;18.40;99.90;;;;;;5058657;28;20029;-82
2023/08/03 12:13:36;;;;;;;4.63;0.55;;;18.40;99.90;;;;;;5066995;28;20033;-82
2023/08/03 12:16:02;;;;;;;4.35;0.68;;;18.30;99.90;;;;;;5063396;28;20377;-83
2023/08/03 12:18:36;;;;;;;4.57;0.50;;;18.30;99.90;;;;;;5064825;28;20039;-82
2023/08/03 12:21:03;;;;;;;4.72;0.70;;;18.30;99.90;;;;;;5057449;28;20086;-83
2023/08/03 12:23:28;;;;;;;4.78;0.73;;;18.50;99.90;;;;;;5066755;28;20029;-83
2023/08/03 12:25:54;;;;;;;0.95;0.57;;;18.70;99.90;;;;;;5064332;28;20043;-82
